Terminal Aerodrome Forecast
Issued by NWS Cleveland, OH

Home | Current Version | Previous Version | Text Only | Print | Product List | Glossary On
Versions: 1 2 3 4 5 6 7 8 9 10 11 12 13 14 15 16 17 18
000
FTUS41 KCLE 010527
TAFCAK
TAF
KCAK 010527Z 0106/0206 12009KT P6SM VCSH BKN012 OVC050
      TEMPO 0106/0110 5SM -SHRA BKN025
     FM011000 14005KT 4SM BR VCSH OVC011
      TEMPO 0110/0114 BKN008
     FM011500 17007KT P6SM VCSH BKN025
     FM011800 19008KT P6SM VCSH BKN040=

USA.gov is the U.S. government's official web portal to all federal, state and local government web resources and services.